Maha Aarti — AVDA — position and weather

sailwx.info

Track history (hours):
 
Tides and Currents Weather Stations Pressure Air Temp Water Temp Dewpoint Dewpoint Depression Visibility Wind Speed Wind Dir Waves Ship Positions

Maha Aarti

Last reported at 2018-Jun-20 14:58 UTC. Time now 2018-Jun-20 15:17 UTC.
Position N 51°54' E 004°16'.

Length 225 m; draft 12.8 m.

Type: Cargo ship. MMSI: 419093500.

Date/timePositionNaut miles runAvg speedWind from/ knotsBaromVisibWave heightAir tempDewpointWater temp
2018-Jun-20 14:58N 51°54' E 004°16'0 0.0
2018-Jun-20 14:28N 51°54' E 004°16'0 0.0
2018-Jun-20 13:58N 51°54' E 004°16'0 0.0
2018-Jun-20 13:28N 51°54' E 004°16'0 0.0
2018-Jun-20 12:58N 51°54' E 004°16'0 0.0
2018-Jun-20 12:28N 51°54' E 004°16'0 0.0
2018-Jun-20 11:58N 51°54' E 004°16'0 0.0
2018-Jun-20 11:28N 51°54' E 004°16'0 0.0
2018-Jun-20 10:55N 51°54' E 004°16'0 0.0
2018-Jun-20 10:28N 51°54' E 004°16'0 0.0
2018-Jun-20 09:58N 51°54' E 004°16'0 0.0
2018-Jun-20 09:28N 51°54' E 004°16'0 0.0
2018-Jun-20 08:58N 51°54' E 004°16'0 0.0
2018-Jun-20 08:28N 51°54' E 004°16'0 0.0
2018-Jun-20 07:58N 51°54' E 004°16'0 0.0
2018-Jun-20 07:28N 51°54' E 004°16'0 0.0
2018-Jun-20 06:58N 51°54' E 004°16'0 0.0
2018-Jun-20 06:28N 51°54' E 004°16'0 0.0
2018-Jun-20 05:58N 51°54' E 004°16'0 0.0
2018-Jun-20 05:28N 51°54' E 004°16'0 0.0
2018-Jun-20 04:58N 51°54' E 004°16'0 0.0
2018-Jun-20 04:28N 51°54' E 004°16'0 0.0
2018-Jun-20 03:58N 51°54' E 004°16'0 0.0
2018-Jun-20 03:28N 51°54' E 004°16'0 0.0
2018-Jun-20 02:58N 51°54' E 004°16'0 0.0
2018-Jun-20 02:28N 51°54' E 004°16'0 0.0
2018-Jun-20 01:55N 51°54' E 004°16'0 0.0
2018-Jun-20 01:28N 51°54' E 004°16'0 0.0
2018-Jun-20 00:58N 51°54' E 004°16'0 0.0
2018-Jun-20 00:28N 51°54' E 004°16'0 0.0
2018-Jun-19 23:58N 51°54' E 004°16'0 0.0
2018-Jun-19 23:28N 51°54' E 004°16'0 0.0
2018-Jun-19 22:58N 51°54' E 004°16'0 0.0
2018-Jun-19 22:28N 51°54' E 004°16'0 0.0
2018-Jun-19 21:58N 51°54' E 004°16'0 0.0
2018-Jun-19 21:28N 51°54' E 004°16'0 0.0
2018-Jun-19 20:58N 51°54' E 004°16'0 0.0
2018-Jun-19 20:28N 51°54' E 004°16'0 0.0
2018-Jun-19 19:58N 51°54' E 004°16'0 0.0
2018-Jun-19 19:28N 51°54' E 004°16'0 0.0
2018-Jun-19 18:58N 51°54' E 004°16'0 0.0
2018-Jun-19 18:28N 51°54' E 004°16'0 0.0
2018-Jun-19 17:58N 51°54' E 004°16'0 0.0
2018-Jun-19 17:28N 51°54' E 004°16'0 0.0
2018-Jun-19 16:58N 51°54' E 004°16'0 0.0
2018-Jun-19 16:28N 51°54' E 004°16'0 0.0
2018-Jun-19 15:58N 51°54' E 004°16'0 0.0
2018-Jun-19 15:28N 51°54' E 004°16'0 0.0
2018-Jun-19 14:58N 51°54' E 004°16'0 0.0
2018-Jun-19 14:28N 51°54' E 004°16'0 0.0
2018-Jun-19 13:58N 51°54' E 004°16'0 0.0
2018-Jun-19 13:28N 51°54' E 004°16'0 0.0
2018-Jun-19 12:58N 51°54' E 004°16'0 0.0
2018-Jun-19 12:28N 51°54' E 004°16'0 0.0
2018-Jun-19 11:58N 51°54' E 004°16'0 0.0
2018-Jun-19 11:28N 51°54' E 004°16'0 0.0
2018-Jun-19 10:58N 51°54' E 004°16'0 0.0
2018-Jun-19 10:28N 51°54' E 004°16'0 0.0
2018-Jun-19 09:58N 51°54' E 004°16'0 0.0
2018-Jun-19 09:28N 51°54' E 004°16'0 0.0
2018-Jun-19 08:58N 51°54' E 004°16'0 0.0
2018-Jun-19 08:28N 51°54' E 004°16'0 0.0
2018-Jun-19 07:58N 51°54' E 004°16'0 0.0
2018-Jun-19 07:28N 51°54' E 004°16'0 0.0
2018-Jun-19 06:58N 51°54' E 004°16'0 0.0
2018-Jun-19 06:28N 51°54' E 004°16'0 0.0
2018-Jun-19 06:00N 51°54' E 004°16'0 0.0
2018-Jun-19 05:30N 51°54' E 004°16'0 0.0
2018-Jun-19 05:00N 51°54' E 004°16'1 1.3
2018-Jun-19 04:30N 51°53' E 004°17'1 1.7
2018-Jun-19 04:00N 51°54' E 004°18'3 5.8
2018-Jun-19 03:30N 51°55' E 004°14'4 7.5
2018-Jun-19 03:00N 51°58' E 004°09'3 5.9
2018-Jun-19 02:30N 51°59' E 004°05'4 7.7
2018-Jun-19 02:00N 52°00' E 003°59'4 7.5
2018-Jun-19 01:30N 52°00' E 003°53'3 6.7
2018-Jun-19 01:00N 52°00' E 003°47'3 6.1
2018-Jun-19 00:30N 51°59' E 003°43'2 3.5
2018-Jun-19 00:00N 51°58' E 003°40'2 3.4
2018-Jun-18 23:30N 51°58' E 003°38'2 3.5
2018-Jun-18 23:00N 51°58' E 003°35'1 2.6
2018-Jun-18 22:30N 51°58' E 003°33'2 3.9
2018-Jun-18 21:59N 51°57' E 003°30'3 5.3
2018-Jun-18 21:29N 51°56' E 003°26'2 4.1
2018-Jun-18 21:00N 51°56' E 003°22'3 5.2
2018-Jun-18 20:30N 51°55' E 003°18'3 5.2
2018-Jun-18 20:00N 51°54' E 003°14'3 5.3
2018-Jun-18 19:24N 51°53' E 003°09'4 9.0
2018-Jun-18 18:58N 51°52' E 003°03'711.5
2018-Jun-18 18:20N 51°49' E 002°52'611.7
2018-Jun-18 17:49N 51°47' E 002°43'510.8
2018-Jun-18 17:23N 51°46' E 002°36'512.6
2018-Jun-18 17:00N 51°42' E 002°31'612.5
2018-Jun-18 16:30N 51°37' E 002°25'612.6
2018-Jun-18 16:00N 51°33' E 002°18'612.0
2018-Jun-18 15:30N 51°28' E 002°12'611.1
2018-Jun-18 15:00N 51°23' E 002°08'611.2
2018-Jun-18 14:30N 51°17' E 002°07'510.9
2018-Jun-18 14:00N 51°13' E 002°02'611.0
2018-Jun-18 13:30N 51°10' E 001°54'510.2
2018-Jun-18 13:00N 51°08' E 001°47'5 9.5
2018-Jun-18 12:30N 51°04' E 001°42'4 8.5
2018-Jun-18 12:00N 51°01' E 001°38'4 8.1
2018-Jun-18 11:30N 50°58' E 001°33'4 7.7
2018-Jun-18 11:00N 50°55' E 001°29'4 7.4
2018-Jun-18 10:31N 50°52' E 001°27'4 7.8
2018-Jun-18 10:00N 50°48' E 001°26'4 8.2
2018-Jun-18 09:30N 50°44' E 001°24'4 8.5
2018-Jun-18 09:00N 50°40' E 001°20'4 8.9
2018-Jun-18 08:30N 50°38' E 001°14'5 9.3
2018-Jun-18 07:55N 50°34' E 001°08'4 9.4
2018-Jun-18 07:29N 50°32' E 001°03'5 9.2
2018-Jun-18 06:59N 50°29' E 000°57'7 9.4
2018-Jun-18 06:12N 50°27' E 000°46'2 9.5
2018-Jun-18 05:58N 50°27' E 000°42'4 9.6
2018-Jun-18 05:30N 50°25' E 000°36'5 9.6
2018-Jun-18 04:59N 50°24' E 000°28'5 9.6
2018-Jun-18 04:30N 50°22' E 000°21'1810.0
2018-Jun-18 02:40N 50°17' W 000°06'210.6
2018-Jun-18 02:27N 50°17' W 000°10'10312.5
2018-Jun-17 18:14N 49°50' W 002°44'3 9.7
2018-Jun-17 17:58N 49°49' W 002°48'4 9.4
2018-Jun-17 17:30N 49°48' W 002°55'7 9.0
2018-Jun-17 16:46N 49°45' W 003°04'4 8.7
2018-Jun-17 16:16N 49°43' W 003°10'3 8.9
2018-Jun-17 15:58N 49°41' W 003°13'4 8.8
2018-Jun-17 15:30N 49°39' W 003°19'13 9.0
2018-Jun-17 14:05N 49°33' W 003°35'1 8.9
2018-Jun-17 13:58N 49°32' W 003°37'9 9.1
2018-Jun-17 13:00N 49°27' W 003°48'5310.6
2018-Jun-17 07:57N 48°60' W 004°59'512.1
2018-Jun-17 07:30N 48°57' W 005°05'712.2
2018-Jun-17 06:56N 48°54' W 005°15'612.5
2018-Jun-17 06:28N 48°51' W 005°22'612.0
2018-Jun-17 06:00N 48°48' W 005°30'711.6
2018-Jun-17 05:23N 48°43' W 005°37'1311.6
2018-Jun-17 04:14N 48°31' W 005°46'1011.2
2018-Jun-17 03:23N 48°22' W 005°53'510.5
2018-Jun-17 02:54N 48°18' W 005°57'510.4
2018-Jun-17 02:26N 48°14' W 006°00'610.3
2018-Jun-17 01:51N 48°08' W 006°04'4 9.7
2018-Jun-17 01:29N 48°05' W 006°07'4 9.4
2018-Jun-17 01:00N 48°01' W 006°10'3 1.8
2018-Jun-16 23:21N 47°59' W 006°12'  
2018-Jun-14 17:39N 39°23' W 009°50'310.1
2018-Jun-14 17:23N 39°20' W 009°50'410.1
2018-Jun-14 17:00N 39°17' W 009°50'510.3
2018-Jun-14 16:30N 39°12' W 009°50'510.3
2018-Jun-14 16:00N 39°06' W 009°50'510.1
2018-Jun-14 15:30N 39°01' W 009°50'510.0
2018-Jun-14 15:00N 38°56' W 009°50'510.5
2018-Jun-14 14:30N 38°51' W 009°50'510.2
2018-Jun-14 14:01N 38°46' W 009°51'510.0
2018-Jun-14 13:30N 38°41' W 009°50'510.1
2018-Jun-14 13:00N 38°36' W 009°48'5 9.7
2018-Jun-14 12:31N 38°31' W 009°47'5 9.5
2018-Jun-14 12:01N 38°27' W 009°46'5 9.3
2018-Jun-14 11:31N 38°22' W 009°44'5 9.4
2018-Jun-14 11:00N 38°18' W 009°43'5 9.6
2018-Jun-14 10:31N 38°13' W 009°41'5 9.6
2018-Jun-14 10:00N 38°08' W 009°40'5 9.7
2018-Jun-14 09:31N 38°04' W 009°38'5 9.8
2018-Jun-14 09:01N 37°59' W 009°37'6 9.9
2018-Jun-14 08:25N 37°53' W 009°35'410.0
2018-Jun-14 08:00N 37°49' W 009°34'710.0
2018-Jun-14 07:20N 37°43' W 009°32'3 9.8
2018-Jun-14 07:00N 37°40' W 009°32'1310.2
2018-Jun-14 05:47N 37°27' W 009°29'910.1
2018-Jun-14 04:51N 37°18' W 009°27'10 9.8
2018-Jun-14 03:51N 37°08' W 009°24'3 9.6
2018-Jun-14 03:31N 37°05' W 009°24'5 9.7
2018-Jun-14 02:59N 37°00' W 009°22'5 9.5
2018-Jun-14 02:30N 36°56' W 009°20'5 9.4
2018-Jun-14 01:56N 36°51' W 009°17'4 9.8
2018-Jun-14 01:30N 36°48' W 009°13'5 9.9
2018-Jun-14 01:00N 36°45' W 009°08'510.1
2018-Jun-14 00:30N 36°43' W 009°03'5 9.9
2018-Jun-14 00:00N 36°42' W 008°57'510.0
2018-Jun-13 23:30N 36°40' W 008°51'510.1
2018-Jun-13 23:00N 36°39' W 008°45'510.1
2018-Jun-13 22:28N 36°37' W 008°38'510.1
2018-Jun-13 21:59N 36°35' W 008°33'1110.2
2018-Jun-13 20:54N 36°32' W 008°20'410.2
2018-Jun-13 20:28N 36°30' W 008°14'510.3
2018-Jun-13 20:00N 36°29' W 008°09'510.4
2018-Jun-13 19:30N 36°27' W 008°03'610.5
2018-Jun-13 18:58N 36°25' W 007°56'510.5
2018-Jun-13 18:30N 36°24' W 007°50'610.4
2018-Jun-13 17:56N 36°22' W 007°43'510.4
2018-Jun-13 17:30N 36°21' W 007°38'510.3
2018-Jun-13 17:00N 36°19' W 007°32'9610.2
2018-Jun-13 07:37N 35°58' W 005°36'1 7.9
2018-Jun-13 07:26N 35°58' W 005°34'3 6.9
2018-Jun-13 07:01N 35°59' W 005°31'3 6.5
2018-Jun-13 06:31N 36°00' W 005°27'3 6.4
2018-Jun-13 06:01N 36°01' W 005°23'3 7.0
2018-Jun-13 05:31N 36°02' W 005°19'3 6.9
2018-Jun-13 05:00N 36°03' W 005°15'3 6.5
2018-Jun-13 04:31N 36°03' W 005°11'3 6.5
2018-Jun-13 04:00N 36°03' W 005°07'4 7.2
2018-Jun-13 03:31N 36°04' W 005°03'203 9.3
2018-Jun-12 05:42N 36°46' W 000°56'5 9.8
2018-Jun-12 05:13N 36°47' W 000°51'2 9.8
2018-Jun-12 05:00N 36°48' W 000°48'5 9.9
2018-Jun-12 04:30N 36°49' W 000°42'510.5
2018-Jun-12 04:00N 36°51' W 000°36'510.8
2018-Jun-12 03:30N 36°52' W 000°29'510.9
2018-Jun-12 03:00N 36°54' W 000°23'3810.6
2018-Jun-11 23:25N 37°06' E 000°23'910.7
2018-Jun-11 22:36N 37°08' E 000°33'210.7
2018-Jun-11 22:25N 37°09' E 000°35'910.7
2018-Jun-11 21:35N 37°12' E 000°46'110.7
2018-Jun-11 21:30N 37°12' E 000°47'3010.8
2018-Jun-11 18:40N 37°21' E 001°23'210.7
2018-Jun-11 18:27N 37°22' E 001°26'510.7
2018-Jun-11 18:00N 37°24' E 001°32'610.7
2018-Jun-11 17:25N 37°26' E 001°39'410.5
2018-Jun-11 17:00N 37°27' E 001°45'510.3
2018-Jun-11 16:30N 37°28' E 001°51'510.4
2018-Jun-11 16:00N 37°30' E 001°57'510.2
2018-Jun-11 15:30N 37°32' E 002°03'  
Track history (hours):
 
Tides and Currents Weather Stations Pressure Air Temp Water Temp Dewpoint Dewpoint Depression Visibility Wind Speed Wind Dir Waves Ship Positions

Maha Aarti

Last reported at 2018-Jun-20 14:58 UTC. Time now 2018-Jun-20 15:17 UTC.
Position N 51°54' E 004°16'.

Length 225 m; draft 12.8 m.

Type: Cargo ship. MMSI: 419093500.

Date/timePositionNaut miles runAvg speedWind from/ knotsBaromVisibWave heightAir tempDewpointWater temp
2018-Jun-20 14:58N 51°54' E 004°16'0 0.0
2018-Jun-20 14:28N 51°54' E 004°16'0 0.0
2018-Jun-20 13:58N 51°54' E 004°16'0 0.0
2018-Jun-20 13:28N 51°54' E 004°16'0 0.0
2018-Jun-20 12:58N 51°54' E 004°16'0 0.0
2018-Jun-20 12:28N 51°54' E 004°16'0 0.0
2018-Jun-20 11:58N 51°54' E 004°16'0 0.0
2018-Jun-20 11:28N 51°54' E 004°16'0 0.0
2018-Jun-20 10:55N 51°54' E 004°16'0 0.0
2018-Jun-20 10:28N 51°54' E 004°16'0 0.0
2018-Jun-20 09:58N 51°54' E 004°16'0 0.0
2018-Jun-20 09:28N 51°54' E 004°16'0 0.0
2018-Jun-20 08:58N 51°54' E 004°16'0 0.0
2018-Jun-20 08:28N 51°54' E 004°16'0 0.0
2018-Jun-20 07:58N 51°54' E 004°16'0 0.0
2018-Jun-20 07:28N 51°54' E 004°16'0 0.0
2018-Jun-20 06:58N 51°54' E 004°16'0 0.0
2018-Jun-20 06:28N 51°54' E 004°16'0 0.0
2018-Jun-20 05:58N 51°54' E 004°16'0 0.0
2018-Jun-20 05:28N 51°54' E 004°16'0 0.0
2018-Jun-20 04:58N 51°54' E 004°16'0 0.0
2018-Jun-20 04:28N 51°54' E 004°16'0 0.0
2018-Jun-20 03:58N 51°54' E 004°16'0 0.0
2018-Jun-20 03:28N 51°54' E 004°16'0 0.0
2018-Jun-20 02:58N 51°54' E 004°16'0 0.0
2018-Jun-20 02:28N 51°54' E 004°16'0 0.0
2018-Jun-20 01:55N 51°54' E 004°16'0 0.0
2018-Jun-20 01:28N 51°54' E 004°16'0 0.0
2018-Jun-20 00:58N 51°54' E 004°16'0 0.0
2018-Jun-20 00:28N 51°54' E 004°16'0 0.0
2018-Jun-19 23:58N 51°54' E 004°16'0 0.0
2018-Jun-19 23:28N 51°54' E 004°16'0 0.0
2018-Jun-19 22:58N 51°54' E 004°16'0 0.0
2018-Jun-19 22:28N 51°54' E 004°16'0 0.0
2018-Jun-19 21:58N 51°54' E 004°16'0 0.0
2018-Jun-19 21:28N 51°54' E 004°16'0 0.0
2018-Jun-19 20:58N 51°54' E 004°16'0 0.0
2018-Jun-19 20:28N 51°54' E 004°16'0 0.0
2018-Jun-19 19:58N 51°54' E 004°16'0 0.0
2018-Jun-19 19:28N 51°54' E 004°16'0 0.0
2018-Jun-19 18:58N 51°54' E 004°16'0 0.0
2018-Jun-19 18:28N 51°54' E 004°16'0 0.0
2018-Jun-19 17:58N 51°54' E 004°16'0 0.0
2018-Jun-19 17:28N 51°54' E 004°16'0 0.0
2018-Jun-19 16:58N 51°54' E 004°16'0 0.0
2018-Jun-19 16:28N 51°54' E 004°16'0 0.0
2018-Jun-19 15:58N 51°54' E 004°16'0 0.0
2018-Jun-19 15:28N 51°54' E 004°16'0 0.0
2018-Jun-19 14:58N 51°54' E 004°16'0 0.0
2018-Jun-19 14:28N 51°54' E 004°16'0 0.0
2018-Jun-19 13:58N 51°54' E 004°16'0 0.0
2018-Jun-19 13:28N 51°54' E 004°16'0 0.0
2018-Jun-19 12:58N 51°54' E 004°16'0 0.0
2018-Jun-19 12:28N 51°54' E 004°16'0 0.0
2018-Jun-19 11:58N 51°54' E 004°16'0 0.0
2018-Jun-19 11:28N 51°54' E 004°16'0 0.0
2018-Jun-19 10:58N 51°54' E 004°16'0 0.0
2018-Jun-19 10:28N 51°54' E 004°16'0 0.0
2018-Jun-19 09:58N 51°54' E 004°16'0 0.0
2018-Jun-19 09:28N 51°54' E 004°16'0 0.0
2018-Jun-19 08:58N 51°54' E 004°16'0 0.0
2018-Jun-19 08:28N 51°54' E 004°16'0 0.0
2018-Jun-19 07:58N 51°54' E 004°16'0 0.0
2018-Jun-19 07:28N 51°54' E 004°16'0 0.0
2018-Jun-19 06:58N 51°54' E 004°16'0 0.0
2018-Jun-19 06:28N 51°54' E 004°16'0 0.0
2018-Jun-19 06:00N 51°54' E 004°16'0 0.0
2018-Jun-19 05:30N 51°54' E 004°16'0 0.0
2018-Jun-19 05:00N 51°54' E 004°16'1 1.3
2018-Jun-19 04:30N 51°53' E 004°17'1 1.7
2018-Jun-19 04:00N 51°54' E 004°18'3 5.8
2018-Jun-19 03:30N 51°55' E 004°14'4 7.5
2018-Jun-19 03:00N 51°58' E 004°09'3 5.9
2018-Jun-19 02:30N 51°59' E 004°05'4 7.7
2018-Jun-19 02:00N 52°00' E 003°59'4 7.5
2018-Jun-19 01:30N 52°00' E 003°53'3 6.7
2018-Jun-19 01:00N 52°00' E 003°47'3 6.1
2018-Jun-19 00:30N 51°59' E 003°43'2 3.5
2018-Jun-19 00:00N 51°58' E 003°40'2 3.4
2018-Jun-18 23:30N 51°58' E 003°38'2 3.5
2018-Jun-18 23:00N 51°58' E 003°35'1 2.6
2018-Jun-18 22:30N 51°58' E 003°33'2 3.9
2018-Jun-18 21:59N 51°57' E 003°30'3 5.3
2018-Jun-18 21:29N 51°56' E 003°26'2 4.1
2018-Jun-18 21:00N 51°56' E 003°22'3 5.2
2018-Jun-18 20:30N 51°55' E 003°18'3 5.2
2018-Jun-18 20:00N 51°54' E 003°14'3 5.3
2018-Jun-18 19:24N 51°53' E 003°09'4 9.0
2018-Jun-18 18:58N 51°52' E 003°03'711.5
2018-Jun-18 18:20N 51°49' E 002°52'611.7
2018-Jun-18 17:49N 51°47' E 002°43'510.8
2018-Jun-18 17:23N 51°46' E 002°36'512.6
2018-Jun-18 17:00N 51°42' E 002°31'612.5
2018-Jun-18 16:30N 51°37' E 002°25'612.6
2018-Jun-18 16:00N 51°33' E 002°18'612.0
2018-Jun-18 15:30N 51°28' E 002°12'611.1
2018-Jun-18 15:00N 51°23' E 002°08'611.2
2018-Jun-18 14:30N 51°17' E 002°07'510.9
2018-Jun-18 14:00N 51°13' E 002°02'611.0
2018-Jun-18 13:30N 51°10' E 001°54'510.2
2018-Jun-18 13:00N 51°08' E 001°47'5 9.5
2018-Jun-18 12:30N 51°04' E 001°42'4 8.5
2018-Jun-18 12:00N 51°01' E 001°38'4 8.1
2018-Jun-18 11:30N 50°58' E 001°33'4 7.7
2018-Jun-18 11:00N 50°55' E 001°29'4 7.4
2018-Jun-18 10:31N 50°52' E 001°27'4 7.8
2018-Jun-18 10:00N 50°48' E 001°26'4 8.2
2018-Jun-18 09:30N 50°44' E 001°24'4 8.5
2018-Jun-18 09:00N 50°40' E 001°20'4 8.9
2018-Jun-18 08:30N 50°38' E 001°14'5 9.3
2018-Jun-18 07:55N 50°34' E 001°08'4 9.4
2018-Jun-18 07:29N 50°32' E 001°03'5 9.2
2018-Jun-18 06:59N 50°29' E 000°57'7 9.4
2018-Jun-18 06:12N 50°27' E 000°46'2 9.5
2018-Jun-18 05:58N 50°27' E 000°42'4 9.6
2018-Jun-18 05:30N 50°25' E 000°36'5 9.6
2018-Jun-18 04:59N 50°24' E 000°28'5 9.6
2018-Jun-18 04:30N 50°22' E 000°21'1810.0
2018-Jun-18 02:40N 50°17' W 000°06'210.6
2018-Jun-18 02:27N 50°17' W 000°10'10312.5
2018-Jun-17 18:14N 49°50' W 002°44'3 9.7
2018-Jun-17 17:58N 49°49' W 002°48'4 9.4
2018-Jun-17 17:30N 49°48' W 002°55'7 9.0
2018-Jun-17 16:46N 49°45' W 003°04'4 8.7
2018-Jun-17 16:16N 49°43' W 003°10'3 8.9
2018-Jun-17 15:58N 49°41' W 003°13'4 8.8
2018-Jun-17 15:30N 49°39' W 003°19'13 9.0
2018-Jun-17 14:05N 49°33' W 003°35'1 8.9
2018-Jun-17 13:58N 49°32' W 003°37'9 9.1
2018-Jun-17 13:00N 49°27' W 003°48'5310.6
2018-Jun-17 07:57N 48°60' W 004°59'512.1
2018-Jun-17 07:30N 48°57' W 005°05'712.2
2018-Jun-17 06:56N 48°54' W 005°15'612.5
2018-Jun-17 06:28N 48°51' W 005°22'612.0
2018-Jun-17 06:00N 48°48' W 005°30'711.6
2018-Jun-17 05:23N 48°43' W 005°37'1311.6
2018-Jun-17 04:14N 48°31' W 005°46'1011.2
2018-Jun-17 03:23N 48°22' W 005°53'510.5
2018-Jun-17 02:54N 48°18' W 005°57'510.4
2018-Jun-17 02:26N 48°14' W 006°00'610.3
2018-Jun-17 01:51N 48°08' W 006°04'4 9.7
2018-Jun-17 01:29N 48°05' W 006°07'4 9.4
2018-Jun-17 01:00N 48°01' W 006°10'3 1.8
2018-Jun-16 23:21N 47°59' W 006°12'  
2018-Jun-14 17:39N 39°23' W 009°50'310.1
2018-Jun-14 17:23N 39°20' W 009°50'410.1
2018-Jun-14 17:00N 39°17' W 009°50'510.3
2018-Jun-14 16:30N 39°12' W 009°50'510.3
2018-Jun-14 16:00N 39°06' W 009°50'510.1
2018-Jun-14 15:30N 39°01' W 009°50'510.0
2018-Jun-14 15:00N 38°56' W 009°50'510.5
2018-Jun-14 14:30N 38°51' W 009°50'510.2
2018-Jun-14 14:01N 38°46' W 009°51'510.0
2018-Jun-14 13:30N 38°41' W 009°50'510.1
2018-Jun-14 13:00N 38°36' W 009°48'5 9.7
2018-Jun-14 12:31N 38°31' W 009°47'5 9.5
2018-Jun-14 12:01N 38°27' W 009°46'5 9.3
2018-Jun-14 11:31N 38°22' W 009°44'5 9.4
2018-Jun-14 11:00N 38°18' W 009°43'5 9.6
2018-Jun-14 10:31N 38°13' W 009°41'5 9.6
2018-Jun-14 10:00N 38°08' W 009°40'5 9.7
2018-Jun-14 09:31N 38°04' W 009°38'5 9.8
2018-Jun-14 09:01N 37°59' W 009°37'6 9.9
2018-Jun-14 08:25N 37°53' W 009°35'410.0
2018-Jun-14 08:00N 37°49' W 009°34'710.0
2018-Jun-14 07:20N 37°43' W 009°32'3 9.8
2018-Jun-14 07:00N 37°40' W 009°32'1310.2
2018-Jun-14 05:47N 37°27' W 009°29'910.1
2018-Jun-14 04:51N 37°18' W 009°27'10 9.8
2018-Jun-14 03:51N 37°08' W 009°24'3 9.6
2018-Jun-14 03:31N 37°05' W 009°24'5 9.7
2018-Jun-14 02:59N 37°00' W 009°22'5 9.5
2018-Jun-14 02:30N 36°56' W 009°20'5 9.4
2018-Jun-14 01:56N 36°51' W 009°17'4 9.8
2018-Jun-14 01:30N 36°48' W 009°13'5 9.9
2018-Jun-14 01:00N 36°45' W 009°08'510.1
2018-Jun-14 00:30N 36°43' W 009°03'5 9.9
2018-Jun-14 00:00N 36°42' W 008°57'510.0
2018-Jun-13 23:30N 36°40' W 008°51'510.1
2018-Jun-13 23:00N 36°39' W 008°45'510.1
2018-Jun-13 22:28N 36°37' W 008°38'510.1
2018-Jun-13 21:59N 36°35' W 008°33'1110.2
2018-Jun-13 20:54N 36°32' W 008°20'410.2
2018-Jun-13 20:28N 36°30' W 008°14'510.3
2018-Jun-13 20:00N 36°29' W 008°09'510.4
2018-Jun-13 19:30N 36°27' W 008°03'610.5
2018-Jun-13 18:58N 36°25' W 007°56'510.5
2018-Jun-13 18:30N 36°24' W 007°50'610.4
2018-Jun-13 17:56N 36°22' W 007°43'510.4
2018-Jun-13 17:30N 36°21' W 007°38'510.3
2018-Jun-13 17:00N 36°19' W 007°32'9610.2
2018-Jun-13 07:37N 35°58' W 005°36'1 7.9
2018-Jun-13 07:26N 35°58' W 005°34'3 6.9
2018-Jun-13 07:01N 35°59' W 005°31'3 6.5
2018-Jun-13 06:31N 36°00' W 005°27'3 6.4
2018-Jun-13 06:01N 36°01' W 005°23'3 7.0
2018-Jun-13 05:31N 36°02' W 005°19'3 6.9
2018-Jun-13 05:00N 36°03' W 005°15'3 6.5
2018-Jun-13 04:31N 36°03' W 005°11'3 6.5
2018-Jun-13 04:00N 36°03' W 005°07'4 7.2
2018-Jun-13 03:31N 36°04' W 005°03'203 9.3
2018-Jun-12 05:42N 36°46' W 000°56'5 9.8
2018-Jun-12 05:13N 36°47' W 000°51'2 9.8
2018-Jun-12 05:00N 36°48' W 000°48'5 9.9
2018-Jun-12 04:30N 36°49' W 000°42'510.5
2018-Jun-12 04:00N 36°51' W 000°36'510.8
2018-Jun-12 03:30N 36°52' W 000°29'510.9
2018-Jun-12 03:00N 36°54' W 000°23'3810.6
2018-Jun-11 23:25N 37°06' E 000°23'910.7
2018-Jun-11 22:36N 37°08' E 000°33'210.7
2018-Jun-11 22:25N 37°09' E 000°35'910.7
2018-Jun-11 21:35N 37°12' E 000°46'110.7
2018-Jun-11 21:30N 37°12' E 000°47'3010.8
2018-Jun-11 18:40N 37°21' E 001°23'210.7
2018-Jun-11 18:27N 37°22' E 001°26'510.7
2018-Jun-11 18:00N 37°24' E 001°32'610.7
2018-Jun-11 17:25N 37°26' E 001°39'410.5
2018-Jun-11 17:00N 37°27' E 001°45'510.3
2018-Jun-11 16:30N 37°28' E 001°51'510.4
2018-Jun-11 16:00N 37°30' E 001°57'510.2
2018-Jun-11 15:30N 37°32' E 002°03'  

Dump ship's entire track history